Time;durP1;ratioP1;P1;durP2;ratioP2;P2;SDS_P1;SDS_P2;PMS_P1;PMS_P2;Temp;Humidity;BMP_temperature;BMP_pressure;BME280_temperature;BME280_humidity;BME280_pressure;Samples;Min_cycle;Max_cycle;Signal;HPM_P1;HPM_P2
2022/03/28 07:59:26;;;;;;;24.13;17.13;;;;;;;;;;4655331;22;20502;-76
2022/03/28 08:01:53;;;;;;;24.83;18.20;;;;;;;;;;5010190;28;20449;-74
2022/03/28 08:04:20;;;;;;;21.63;18.20;;;;;;;;;;5013843;28;20936;-75
2022/03/28 08:06:48;;;;;;;28.67;17.57;;;;;;;;;;5013994;28;20443;-76
2022/03/28 08:09:17;;;;;;;24.93;18.43;;;;;;;;;;5011843;28;20551;-75
2022/03/28 08:11:44;;;;;;;28.13;19.57;;;;;;;;;;5007414;28;20439;-76
2022/03/28 08:14:11;;;;;;;22.97;16.10;;;;;;;;;;5008864;28;20748;-77
2022/03/28 08:16:40;;;;;;;18.80;16.37;;;;;;;;;;5010421;28;20932;-73
2022/03/28 08:19:07;;;;;;;20.90;16.70;;;;;;;;;;5010229;28;20968;-76
2022/03/28 08:21:34;;;;;;;23.60;17.60;;;;;;;;;;5011014;28;20459;-75
2022/03/28 08:24:02;;;;;;;22.73;16.80;;;;;;;;;;5010606;28;20537;-73
2022/03/28 08:26:30;;;;;;;23.60;19.57;;;;;;;;;;5011592;28;20785;-74
2022/03/28 08:28:57;;;;;;;28.40;21.70;;;;;;;;;;5008309;28;20468;-73
2022/03/28 08:31:24;;;;;;;27.07;21.00;;;;;;;;;;5007673;28;20477;-74
2022/03/28 08:33:53;;;;;;;29.57;20.43;;;;;;;;;;5009873;28;20412;-75
2022/03/28 08:36:20;;;;;;;32.53;23.27;;;;;;;;;;5010768;28;20421;-75
2022/03/28 08:38:47;;;;;;;28.43;19.57;;;;;;;;;;5010484;28;20461;-74
2022/03/28 08:41:17;;;;;;;29.67;19.83;;;;;;;;;;5011316;28;20429;-75
2022/03/28 08:43:44;;;;;;;29.10;20.20;;;;;;;;;;5010568;28;20484;-74
2022/03/28 08:46:11;;;;;;;25.77;19.20;;;;;;;;;;5012851;28;20449;-74
2022/03/28 08:48:40;;;;;;;22.83;17.93;;;;;;;;;;5011586;28;20468;-74
2022/03/28 08:51:10;;;;;;;23.73;17.07;;;;;;;;;;5008994;28;20987;-74
2022/03/28 08:53:37;;;;;;;24.43;19.13;;;;;;;;;;5006719;28;20448;-74
2022/03/28 08:56:05;;;;;;;22.87;18.60;;;;;;;;;;5008747;28;20446;-75
2022/03/28 08:58:32;;;;;;;24.27;18.23;;;;;;;;;;5008829;28;20483;-74
2022/03/28 09:00:59;;;;;;;24.97;19.80;;;;;;;;;;5008755;28;20449;-76
2022/03/28 09:03:36;;;;;;;25.53;19.93;;;;;;;;;;5009918;28;20424;-76
2022/03/28 09:06:24;;;;;;;26.83;19.90;;;;;;;;;;5010202;28;20434;-76
2022/03/28 09:08:52;;;;;;;30.53;21.57;;;;;;;;;;5010704;28;20493;-76
2022/03/28 09:11:21;;;;;;;25.77;19.17;;;;;;;;;;5012226;28;20770;-76
2022/03/28 09:13:48;;;;;;;26.93;20.67;;;;;;;;;;5008737;28;20414;-75
2022/03/28 09:16:19;;;;;;;29.60;21.27;;;;;;;;;;5006306;28;20430;-76
2022/03/28 09:18:46;;;;;;;31.47;22.00;;;;;;;;;;5006998;28;20421;-75
2022/03/28 09:21:16;;;;;;;27.50;19.20;;;;;;;;;;5009510;28;20421;-81
2022/03/28 09:23:44;;;;;;;27.93;20.37;;;;;;;;;;5009830;28;20475;-75
2022/03/28 09:26:16;;;;;;;28.77;21.80;;;;;;;;;;5009968;28;20473;-75
2022/03/28 09:28:48;;;;;;;25.53;19.50;;;;;;;;;;5008193;28;20559;-77
2022/03/28 09:31:17;;;;;;;26.27;19.00;;;;;;;;;;5010441;28;20450;-78
2022/03/28 09:33:52;;;;;;;25.00;17.80;;;;;;;;;;5011807;28;20423;-76
2022/03/28 09:36:19;;;;;;;24.20;18.43;;;;;;;;;;5008937;28;20438;-77
2022/03/28 09:38:57;;;;;;;22.40;18.00;;;;;;;;;;5005927;28;20431;-76
2022/03/28 09:41:26;;;;;;;27.90;18.10;;;;;;;;;;5007330;28;20524;-77
2022/03/28 09:43:54;;;;;;;25.67;19.87;;;;;;;;;;5009401;28;20821;-76
2022/03/28 09:46:26;;;;;;;26.50;19.30;;;;;;;;;;5008377;28;20923;-80
2022/03/28 09:48:54;;;;;;;23.63;18.83;;;;;;;;;;5009700;28;20548;-77
2022/03/28 09:51:22;;;;;;;28.30;20.90;;;;;;;;;;5009821;28;20455;-76
2022/03/28 09:53:49;;;;;;;28.00;20.80;;;;;;;;;;5010719;28;20458;-77
2022/03/28 09:56:17;;;;;;;28.63;20.80;;;;;;;;;;5009793;28;20935;-78
2022/03/28 09:58:47;;;;;;;27.20;19.17;;;;;;;;;;5005382;28;20448;-76
2022/03/28 10:01:15;;;;;;;25.30;19.20;;;;;;;;;;5005626;28;20758;-76
2022/03/28 10:03:43;;;;;;;22.53;16.90;;;;;;;;;;5009338;28;20417;-78
2022/03/28 10:06:10;;;;;;;25.93;18.80;;;;;;;;;;5008832;28;20420;-79
2022/03/28 10:08:38;;;;;;;26.03;17.97;;;;;;;;;;5007895;28;20504;-77
2022/03/28 10:11:05;;;;;;;30.10;18.83;;;;;;;;;;5010271;28;20427;-78
2022/03/28 10:13:33;;;;;;;25.27;17.67;;;;;;;;;;5010348;28;20887;-79
2022/03/28 10:16:02;;;;;;;26.30;17.27;;;;;;;;;;5015104;28;20477;-79
2022/03/28 10:18:30;;;;;;;24.93;15.70;;;;;;;;;;5013450;28;20475;-79
2022/03/28 10:20:59;;;;;;;22.23;15.23;;;;;;;;;;5009464;28;20830;-78
2022/03/28 10:23:30;;;;;;;16.40;13.27;;;;;;;;;;5010156;28;20417;-76
2022/03/28 10:25:58;;;;;;;17.93;14.07;;;;;;;;;;5012800;28;20427;-81
2022/03/28 10:28:25;;;;;;;20.57;14.80;;;;;;;;;;5011549;28;21003;-77
2022/03/28 10:31:07;;;;;;;26.90;17.03;;;;;;;;;;5012334;28;20429;-78
2022/03/28 10:33:36;;;;;;;20.60;15.60;;;;;;;;;;5012315;28;20423;-78
2022/03/28 10:36:06;;;;;;;23.90;16.33;;;;;;;;;;5011690;28;20443;-79
2022/03/28 10:38:33;;;;;;;18.37;14.73;;;;;;;;;;5008923;28;20557;-76
2022/03/28 10:41:00;;;;;;;20.73;15.37;;;;;;;;;;5009967;28;20424;-77
2022/03/28 10:43:29;;;;;;;20.17;15.80;;;;;;;;;;5011361;28;20428;-77
2022/03/28 10:45:57;;;;;;;22.90;15.97;;;;;;;;;;5010803;28;20446;-77
2022/03/28 10:48:36;;;;;;;21.10;14.80;;;;;;;;;;5012341;28;20470;-76
2022/03/28 10:51:05;;;;;;;18.97;14.47;;;;;;;;;;5011998;28;20435;-76
2022/03/28 10:53:37;;;;;;;18.67;14.20;;;;;;;;;;5013700;28;20440;-75
2022/03/28 10:56:06;;;;;;;23.13;16.10;;;;;;;;;;5013523;28;20420;-76
2022/03/28 10:58:33;;;;;;;19.93;14.87;;;;;;;;;;5014161;28;20445;-75
2022/03/28 11:01:16;;;;;;;18.97;13.90;;;;;;;;;;5009003;28;20450;-77
2022/03/28 11:03:46;;;;;;;20.53;13.10;;;;;;;;;;5009270;28;20446;-77
2022/03/28 11:06:13;;;;;;;21.07;16.33;;;;;;;;;;5011420;28;20924;-75
2022/03/28 11:08:41;;;;;;;25.20;15.77;;;;;;;;;;5010445;28;20468;-74
2022/03/28 11:11:17;;;;;;;26.00;19.43;;;;;;;;;;5010543;28;20443;-77
2022/03/28 11:13:44;;;;;;;25.63;19.80;;;;;;;;;;5012229;28;20441;-77
2022/03/28 11:16:20;;;;;;;25.80;19.53;;;;;;;;;;5011320;28;20463;-76
2022/03/28 11:19:01;;;;;;;31.03;19.60;;;;;;;;;;5008301;28;20465;-77
2022/03/28 11:21:30;;;;;;;28.10;19.77;;;;;;;;;;5007748;28;20435;-75
2022/03/28 11:24:08;;;;;;;24.07;18.90;;;;;;;;;;5011411;28;20453;-76
2022/03/28 11:26:36;;;;;;;20.50;16.43;;;;;;;;;;5010788;28;20541;-79
2022/03/28 11:29:07;;;;;;;22.83;16.03;;;;;;;;;;5011686;28;20875;-78
2022/03/28 11:31:36;;;;;;;25.67;17.77;;;;;;;;;;5012088;28;20451;-75
2022/03/28 11:34:09;;;;;;;21.47;15.73;;;;;;;;;;5012749;28;20455;-77
2022/03/28 11:36:39;;;;;;;27.83;18.67;;;;;;;;;;5013688;28;20446;-75
2022/03/28 11:39:11;;;;;;;24.10;16.00;;;;;;;;;;5013155;28;20557;-74
2022/03/28 11:41:41;;;;;;;20.87;15.90;;;;;;;;;;5007915;28;20533;-74
2022/03/28 11:44:13;;;;;;;19.67;15.40;;;;;;;;;;5008534;28;20442;-74
2022/03/28 11:46:40;;;;;;;20.27;16.70;;;;;;;;;;5010974;28;20470;-75
2022/03/28 11:49:08;;;;;;;20.80;14.57;;;;;;;;;;5011008;28;20468;-76
2022/03/28 11:51:38;;;;;;;19.47;14.40;;;;;;;;;;5011255;28;20447;-76
2022/03/28 11:54:07;;;;;;;17.93;12.97;;;;;;;;;;5011598;28;20839;-76
2022/03/28 11:58:14;;;;;;;22.33;14.03;;;;;;;;;;5012087;28;20458;-77
2022/03/28 11:59:23;;;;;;;19.87;13.10;;;;;;;;;;5011739;28;21020;-75
2022/03/28 12:01:56;;;;;;;18.10;12.43;;;;;;;;;;5011806;28;20450;-77
2022/03/28 12:04:24;;;;;;;17.50;12.80;;;;;;;;;;5007798;28;20413;-76
2022/03/28 12:06:53;;;;;;;16.20;10.83;;;;;;;;;;5007641;28;20427;-74
2022/03/28 12:09:21;;;;;;;19.80;12.57;;;;;;;;;;5010241;28;21025;-74
2022/03/28 12:11:49;;;;;;;16.30;12.10;;;;;;;;;;5010903;28;20496;-76
2022/03/28 12:14:17;;;;;;;20.07;14.47;;;;;;;;;;5009587;28;20534;-76
2022/03/28 12:16:47;;;;;;;16.43;12.17;;;;;;;;;;5011112;28;20865;-76
2022/03/28 12:19:18;;;;;;;19.77;13.60;;;;;;;;;;5010341;28;20475;-74
2022/03/28 12:21:45;;;;;;;19.00;11.90;;;;;;;;;;5012734;28;20454;-73
2022/03/28 12:24:14;;;;;;;16.57;11.70;;;;;;;;;;5012783;28;20451;-73
2022/03/28 12:26:43;;;;;;;14.37;11.60;;;;;;;;;;5008580;28;20430;-77
2022/03/28 12:29:12;;;;;;;22.07;12.63;;;;;;;;;;5006531;28;20851;-76
2022/03/28 12:31:39;;;;;;;15.03;12.17;;;;;;;;;;5009517;28;20447;-75
2022/03/28 12:34:07;;;;;;;20.43;13.50;;;;;;;;;;5010434;28;20535;-76
2022/03/28 12:36:35;;;;;;;19.27;14.57;;;;;;;;;;5009662;28;20439;-76
2022/03/28 12:39:06;;;;;;;19.67;14.00;;;;;;;;;;5010824;28;20466;-75
2022/03/28 12:41:41;;;;;;;20.40;15.20;;;;;;;;;;5010275;28;20461;-75
2022/03/28 12:44:13;;;;;;;16.60;12.83;;;;;;;;;;5012394;28;20796;-75
2022/03/28 12:46:40;;;;;;;17.83;14.63;;;;;;;;;;5012530;28;20430;-76
2022/03/28 12:49:08;;;;;;;22.83;14.30;;;;;;;;;;5008863;28;20536;-75
2022/03/28 12:51:37;;;;;;;19.00;12.90;;;;;;;;;;5007364;28;20444;-75
2022/03/28 12:54:05;;;;;;;18.03;13.60;;;;;;;;;;5008268;28;20883;-76
2022/03/28 12:56:44;;;;;;;19.50;15.07;;;;;;;;;;5010203;28;20651;-74
2022/03/28 12:59:14;;;;;;;25.03;16.43;;;;;;;;;;5009911;28;20573;-76
2022/03/28 13:01:41;;;;;;;23.07;16.87;;;;;;;;;;5010812;28;20410;-75
2022/03/28 13:04:09;;;;;;;21.30;15.63;;;;;;;;;;5010049;28;20444;-75
2022/03/28 13:06:40;;;;;;;23.90;15.80;;;;;;;;;;5012397;28;20447;-76
2022/03/28 13:09:08;;;;;;;23.17;15.03;;;;;;;;;;5011009;28;20465;-76
2022/03/28 13:11:36;;;;;;;18.20;14.47;;;;;;;;;;5008850;28;20453;-76
2022/03/28 13:14:05;;;;;;;25.60;15.50;;;;;;;;;;5006409;28;20447;-76
2022/03/28 13:16:33;;;;;;;22.50;16.40;;;;;;;;;;5007729;28;20444;-76
2022/03/28 13:19:02;;;;;;;24.37;14.73;;;;;;;;;;5008240;28;20470;-75
2022/03/28 13:21:30;;;;;;;22.43;14.30;;;;;;;;;;5009827;28;20447;-75
2022/03/28 13:24:06;;;;;;;18.60;14.33;;;;;;;;;;5010170;28;20445;-75
2022/03/28 13:26:41;;;;;;;22.60;13.57;;;;;;;;;;5008979;28;20447;-75
2022/03/28 13:29:18;;;;;;;25.63;13.93;;;;;;;;;;4990533;28;20795;-76
2022/03/28 13:31:45;;;;;;;23.50;14.50;;;;;;;;;;4990705;28;20436;-76
2022/03/28 13:34:12;;;;;;;18.80;13.50;;;;;;;;;;4997117;28;20431;-75
2022/03/28 13:36:40;;;;;;;22.00;14.70;;;;;;;;;;5006318;28;20538;-75
2022/03/28 13:39:07;;;;;;;18.30;13.40;;;;;;;;;;5007279;28;20451;-75
2022/03/28 13:41:34;;;;;;;25.40;14.43;;;;;;;;;;5009627;28;20441;-75
2022/03/28 13:44:02;;;;;;;21.83;14.50;;;;;;;;;;5009457;28;20533;-76
2022/03/28 13:46:31;;;;;;;23.37;15.50;;;;;;;;;;5008476;28;20501;-75
2022/03/28 13:48:58;;;;;;;21.20;15.17;;;;;;;;;;5012506;28;20463;-76
2022/03/28 13:51:27;;;;;;;21.20;13.30;;;;;;;;;;5014337;28;20486;-76
2022/03/28 13:53:54;;;;;;;18.47;13.13;;;;;;;;;;5015448;28;20803;-75
2022/03/28 13:56:22;;;;;;;21.93;14.73;;;;;;;;;;5015364;28;20867;-75
2022/03/28 13:58:49;;;;;;;20.07;15.67;;;;;;;;;;5009668;28;20466;-76
2022/03/28 14:01:16;;;;;;;18.57;13.17;;;;;;;;;;5010706;28;20435;-75
2022/03/28 14:03:44;;;;;;;20.93;14.90;;;;;;;;;;5012764;28;20434;-76
2022/03/28 14:06:12;;;;;;;23.57;15.10;;;;;;;;;;5013161;28;20438;-75
2022/03/28 14:08:41;;;;;;;19.97;14.50;;;;;;;;;;5013340;28;20498;-74
2022/03/28 14:11:10;;;;;;;21.50;14.70;;;;;;;;;;5012406;28;20490;-74
2022/03/28 14:13:37;;;;;;;23.97;15.20;;;;;;;;;;5014118;28;20462;-75
2022/03/28 14:16:05;;;;;;;18.40;14.73;;;;;;;;;;5015185;28;20443;-74
2022/03/28 14:18:32;;;;;;;26.10;17.90;;;;;;;;;;5014849;28;20463;-76
2022/03/28 14:21:00;;;;;;;19.40;13.70;;;;;;;;;;5011010;28;21944;-77
2022/03/28 14:23:28;;;;;;;24.90;16.90;;;;;;;;;;5009416;28;20797;-74
2022/03/28 14:25:55;;;;;;;21.33;15.73;;;;;;;;;;5010792;28;20447;-75
2022/03/28 14:28:23;;;;;;;27.53;14.70;;;;;;;;;;5012941;28;20513;-76
2022/03/28 14:30:50;;;;;;;22.30;16.93;;;;;;;;;;5011315;28;20839;-76
2022/03/28 14:33:17;;;;;;;20.97;15.00;;;;;;;;;;5012078;28;20796;-74
2022/03/28 14:35:45;;;;;;;17.00;14.03;;;;;;;;;;5012858;28;20422;-75
2022/03/28 14:38:13;;;;;;;17.13;12.50;;;;;;;;;;5014590;28;20462;-76
2022/03/28 14:40:41;;;;;;;19.30;12.67;;;;;;;;;;5014448;28;20442;-78
2022/03/28 14:43:08;;;;;;;21.03;14.93;;;;;;;;;;5011809;28;20847;-76
2022/03/28 14:46:59;;;;;;;20.93;14.07;;;;;;;;;;5009784;28;20637;-74
2022/03/28 14:48:32;;;;;;;20.03;14.43;;;;;;;;;;5012075;28;20462;-74
2022/03/28 14:51:01;;;;;;;17.00;13.43;;;;;;;;;;5013398;28;20489;-74
2022/03/28 14:53:29;;;;;;;25.10;15.47;;;;;;;;;;5013777;28;20450;-74
2022/03/28 14:55:57;;;;;;;19.10;14.20;;;;;;;;;;5014106;28;20450;-77
2022/03/28 14:58:24;;;;;;;18.37;14.17;;;;;;;;;;5013755;28;20489;-75
2022/03/28 15:00:51;;;;;;;18.20;13.30;;;;;;;;;;5014512;28;20439;-74
2022/03/28 15:03:18;;;;;;;16.83;13.90;;;;;;;;;;5015301;28;20457;-75
2022/03/28 15:05:46;;;;;;;22.33;16.30;;;;;;;;;;5013624;28;20724;-77
2022/03/28 15:08:14;;;;;;;22.50;16.80;;;;;;;;;;5010780;28;20470;-75
2022/03/28 15:10:42;;;;;;;24.07;17.27;;;;;;;;;;5011932;28;20546;-76
2022/03/28 15:13:09;;;;;;;26.93;16.33;;;;;;;;;;5013204;28;20866;-75
2022/03/28 15:15:37;;;;;;;23.30;16.60;;;;;;;;;;5012819;28;20789;-75
2022/03/28 15:18:04;;;;;;;20.67;14.70;;;;;;;;;;5013126;28;20481;-77
2022/03/28 15:20:31;;;;;;;26.87;17.60;;;;;;;;;;5013644;28;20452;-77
2022/03/28 15:22:58;;;;;;;25.87;17.20;;;;;;;;;;5014159;28;20551;-75
2022/03/28 15:25:25;;;;;;;25.73;18.20;;;;;;;;;;5015038;28;20442;-74
2022/03/28 15:27:54;;;;;;;27.40;17.73;;;;;;;;;;5013812;28;20453;-76
2022/03/28 15:30:21;;;;;;;24.87;19.00;;;;;;;;;;5010280;28;20493;-75
2022/03/28 15:32:50;;;;;;;31.30;19.90;;;;;;;;;;5010840;28;20437;-77
2022/03/28 15:35:17;;;;;;;30.20;18.90;;;;;;;;;;5012862;28;20823;-75
2022/03/28 15:40:11;;;;;;;24.50;17.07;;;;;;;;;;5012416;28;20401;-75
2022/03/28 15:42:38;;;;;;;25.07;18.03;;;;;;;;;;5012669;28;20199;-76
2022/03/28 15:45:07;;;;;;;29.27;18.10;;;;;;;;;;5012363;28;20902;-74
2022/03/28 15:47:35;;;;;;;33.37;19.70;;;;;;;;;;5008784;28;20442;-75
2022/03/28 15:50:02;;;;;;;28.70;20.00;;;;;;;;;;5010231;28;20435;-75
2022/03/28 15:52:29;;;;;;;32.17;19.67;;;;;;;;;;5002365;28;20458;-75
2022/03/28 15:54:56;;;;;;;23.97;17.00;;;;;;;;;;4993134;28;20421;-75
2022/03/28 15:57:25;;;;;;;26.83;18.60;;;;;;;;;;5012279;28;20434;-75
2022/03/28 15:59:52;;;;;;;24.63;17.03;;;;;;;;;;5012584;28;20494;-77
2022/03/28 16:02:20;;;;;;;30.70;20.20;;;;;;;;;;5013351;28;20926;-76
2022/03/28 16:04:48;;;;;;;25.93;18.70;;;;;;;;;;5014502;28;20808;-75
2022/03/28 16:07:15;;;;;;;32.90;18.80;;;;;;;;;;5014090;28;20548;-75
2022/03/28 16:09:42;;;;;;;24.00;17.23;;;;;;;;;;5009536;28;20421;-76
2022/03/28 16:12:10;;;;;;;33.53;21.23;;;;;;;;;;5007110;28;21800;-75
2022/03/28 16:14:37;;;;;;;33.73;19.43;;;;;;;;;;4992119;28;20444;-75
2022/03/28 16:17:06;;;;;;;25.00;18.97;;;;;;;;;;4992612;28;20450;-75
2022/03/28 16:19:35;;;;;;;24.53;17.10;;;;;;;;;;5000837;28;20979;-77
2022/03/28 16:22:02;;;;;;;24.13;18.00;;;;;;;;;;4994451;28;20462;-76
2022/03/28 16:24:29;;;;;;;28.23;20.10;;;;;;;;;;5003234;28;20461;-76
2022/03/28 16:26:58;;;;;;;27.60;19.03;;;;;;;;;;5005830;28;20432;-78
2022/03/28 16:29:25;;;;;;;26.47;19.20;;;;;;;;;;5010899;28;20479;-77
2022/03/28 16:31:52;;;;;;;30.67;23.10;;;;;;;;;;5009821;28;21083;-78
2022/03/28 16:34:20;;;;;;;30.13;20.43;;;;;;;;;;5009412;28;20900;-78
2022/03/28 16:36:49;;;;;;;26.97;19.37;;;;;;;;;;5007404;28;20872;-75
2022/03/28 16:39:16;;;;;;;28.47;19.17;;;;;;;;;;4993392;28;20460;-76
2022/03/28 16:41:43;;;;;;;24.40;19.07;;;;;;;;;;5002550;28;20468;-77
2022/03/28 16:44:11;;;;;;;30.93;22.13;;;;;;;;;;5012271;28;20451;-76
2022/03/28 16:46:38;;;;;;;31.07;20.47;;;;;;;;;;5006855;28;20436;-77
2022/03/28 16:49:06;;;;;;;30.50;21.20;;;;;;;;;;5007594;28;20531;-76
2022/03/28 16:51:34;;;;;;;33.93;22.20;;;;;;;;;;5013183;28;20490;-77
2022/03/28 16:54:03;;;;;;;27.27;20.63;;;;;;;;;;5001633;28;20465;-77
2022/03/28 16:56:30;;;;;;;32.70;20.13;;;;;;;;;;5008114;28;20512;-78
2022/03/28 16:58:58;;;;;;;53.27;18.70;;;;;;;;;;5009678;28;20985;-76
2022/03/28 17:01:25;;;;;;;25.33;18.27;;;;;;;;;;5002064;28;20472;-74
2022/03/28 17:03:53;;;;;;;29.83;19.90;;;;;;;;;;4998935;28;20430;-77
2022/03/28 17:06:20;;;;;;;26.57;19.90;;;;;;;;;;5011023;28;21103;-78
2022/03/28 17:08:47;;;;;;;29.50;20.37;;;;;;;;;;5011431;28;20463;-78
2022/03/28 17:11:16;;;;;;;30.87;19.10;;;;;;;;;;5009058;28;20512;-77
2022/03/28 17:13:44;;;;;;;30.80;19.90;;;;;;;;;;5008529;28;20535;-76
2022/03/28 17:16:12;;;;;;;26.93;18.47;;;;;;;;;;4999823;28;20493;-76
2022/03/28 17:18:39;;;;;;;30.30;20.67;;;;;;;;;;4991079;28;20434;-77
2022/03/28 17:21:07;;;;;;;26.00;18.50;;;;;;;;;;5001472;28;20447;-77
2022/03/28 17:23:35;;;;;;;27.67;18.40;;;;;;;;;;5010614;28;20428;-75
2022/03/28 17:26:03;;;;;;;28.53;18.83;;;;;;;;;;5010281;28;20454;-79
2022/03/28 17:28:32;;;;;;;29.40;19.47;;;;;;;;;;5011814;28;20526;-76
2022/03/28 17:30:59;;;;;;;29.03;20.10;;;;;;;;;;5012545;28;20568;-76
2022/03/28 17:33:27;;;;;;;30.30;19.90;;;;;;;;;;5011833;28;20443;-76
2022/03/28 17:35:54;;;;;;;26.83;19.40;;;;;;;;;;5004034;28;20439;-76
2022/03/28 17:38:24;;;;;;;31.07;21.10;;;;;;;;;;5004501;28;20497;-74
2022/03/28 17:40:51;;;;;;;24.70;18.40;;;;;;;;;;5000407;28;20533;-75
2022/03/28 17:43:18;;;;;;;31.40;20.43;;;;;;;;;;4988128;28;20929;-75
2022/03/28 17:45:47;;;;;;;32.03;22.27;;;;;;;;;;4988406;28;20813;-76
2022/03/28 17:48:15;;;;;;;34.47;22.17;;;;;;;;;;4998717;28;20486;-77
2022/03/28 17:50:42;;;;;;;27.50;18.23;;;;;;;;;;5008377;28;20536;-75
2022/03/28 17:53:09;;;;;;;36.43;20.50;;;;;;;;;;5009509;28;20447;-74
2022/03/28 17:55:38;;;;;;;40.77;24.70;;;;;;;;;;4995360;28;20462;-76
2022/03/28 17:58:06;;;;;;;31.83;21.57;;;;;;;;;;5003195;28;20491;-76
2022/03/28 18:00:35;;;;;;;31.90;22.43;;;;;;;;;;5005504;28;20771;-78
2022/03/28 18:03:03;;;;;;;32.00;22.10;;;;;;;;;;4997531;28;20464;-79
2022/03/28 18:05:32;;;;;;;33.07;24.57;;;;;;;;;;4987581;28;21015;-76
2022/03/28 18:07:59;;;;;;;35.47;23.70;;;;;;;;;;4987747;28;20503;-75
2022/03/28 18:10:27;;;;;;;33.90;22.33;;;;;;;;;;4997860;28;20476;-75
2022/03/28 18:12:54;;;;;;;33.63;22.60;;;;;;;;;;5005035;28;20459;-78
2022/03/28 18:15:21;;;;;;;29.83;19.80;;;;;;;;;;5003218;28;20866;-78
2022/03/28 18:17:49;;;;;;;32.10;22.50;;;;;;;;;;5005732;28;20499;-77
2022/03/28 18:20:17;;;;;;;37.73;22.87;;;;;;;;;;4997690;28;20463;-77
2022/03/28 18:22:45;;;;;;;30.13;20.73;;;;;;;;;;5003166;28;20463;-76
2022/03/28 18:25:13;;;;;;;41.57;24.77;;;;;;;;;;4989006;28;20510;-77
2022/03/28 18:27:41;;;;;;;35.73;22.47;;;;;;;;;;4986590;28;20475;-77
2022/03/28 18:30:09;;;;;;;39.50;22.43;;;;;;;;;;5006064;28;20450;-76
2022/03/28 18:32:36;;;;;;;36.47;25.30;;;;;;;;;;5008137;28;21023;-78
2022/03/28 18:35:03;;;;;;;40.20;23.83;;;;;;;;;;5007574;28;20454;-77
2022/03/28 18:37:32;;;;;;;34.67;21.97;;;;;;;;;;5013117;28;20460;-75
2022/03/28 18:39:59;;;;;;;32.77;20.07;;;;;;;;;;5007628;28;20456;-76
2022/03/28 18:42:26;;;;;;;32.07;22.23;;;;;;;;;;5012442;28;20448;-74
2022/03/28 18:44:53;;;;;;;34.30;22.63;;;;;;;;;;5005921;28;20467;-76
2022/03/28 18:47:21;;;;;;;31.87;20.70;;;;;;;;;;5009097;28;20450;-75
2022/03/28 18:49:48;;;;;;;33.23;21.83;;;;;;;;;;5006374;28;20469;-74
2022/03/28 18:52:18;;;;;;;31.63;19.80;;;;;;;;;;4995130;28;20500;-75
2022/03/28 18:54:47;;;;;;;35.57;22.70;;;;;;;;;;4994751;28;20926;-75
2022/03/28 18:57:14;;;;;;;34.73;21.23;;;;;;;;;;5005461;28;20445;-77
2022/03/28 18:59:41;;;;;;;35.00;21.07;;;;;;;;;;5009220;28;20480;-75
2022/03/28 19:02:09;;;;;;;30.13;21.13;;;;;;;;;;5010452;28;20588;-73
2022/03/28 19:04:36;;;;;;;29.10;19.67;;;;;;;;;;5010306;28;20459;-75
2022/03/28 19:07:03;;;;;;;33.07;21.33;;;;;;;;;;5007256;28;20454;-75
2022/03/28 19:09:31;;;;;;;27.57;19.73;;;;;;;;;;5008522;28;20455;-76
2022/03/28 19:11:59;;;;;;;32.13;21.20;;;;;;;;;;4991620;28;21016;-76
2022/03/28 19:14:26;;;;;;;35.10;22.93;;;;;;;;;;4990789;28;20946;-76
2022/03/28 19:16:55;;;;;;;33.60;21.77;;;;;;;;;;4990929;28;20952;-77
2022/03/28 19:19:24;;;;;;;28.87;19.73;;;;;;;;;;5003418;28;20465;-76
2022/03/28 19:21:52;;;;;;;38.77;20.37;;;;;;;;;;5009626;28;20474;-75
2022/03/28 19:24:19;;;;;;;27.70;20.07;;;;;;;;;;5011037;28;20451;-74
2022/03/28 19:26:48;;;;;;;33.77;18.50;;;;;;;;;;5011817;28;20455;-75
2022/03/28 19:29:17;;;;;;;27.63;18.97;;;;;;;;;;5007153;28;20463;-77
2022/03/28 19:31:44;;;;;;;33.63;21.00;;;;;;;;;;5006827;28;20529;-76
2022/03/28 19:34:12;;;;;;;32.57;21.50;;;;;;;;;;5005198;28;20443;-75
2022/03/28 19:36:39;;;;;;;34.97;21.03;;;;;;;;;;5002938;28;20897;-74
2022/03/28 19:39:08;;;;;;;35.47;21.90;;;;;;;;;;4990306;28;20476;-74
2022/03/28 19:41:35;;;;;;;31.77;20.63;;;;;;;;;;4991150;28;20821;-75
2022/03/28 19:44:03;;;;;;;29.77;19.20;;;;;;;;;;4997166;28;20463;-74
2022/03/28 19:46:31;;;;;;;28.53;18.50;;;;;;;;;;5009529;28;20554;-75
2022/03/28 19:48:58;;;;;;;30.20;20.03;;;;;;;;;;4991750;28;20972;-74
2022/03/28 19:51:25;;;;;;;32.23;19.27;;;;;;;;;;5000935;28;20980;-75
2022/03/28 19:53:53;;;;;;;25.27;17.80;;;;;;;;;;5006518;28;20446;-75
2022/03/28 19:56:20;;;;;;;30.67;20.43;;;;;;;;;;4991954;28;20471;-76
2022/03/28 19:58:47;;;;;;;33.93;19.23;;;;;;;;;;4988885;28;20498;-74
2022/03/28 20:01:15;;;;;;;32.93;20.93;;;;;;;;;;4989195;28;20836;-77
2022/03/28 20:03:44;;;;;;;28.93;19.10;;;;;;;;;;4990166;28;20479;-74
2022/03/28 20:06:11;;;;;;;31.47;18.83;;;;;;;;;;4991728;28;20956;-76
2022/03/28 20:08:38;;;;;;;31.60;20.17;;;;;;;;;;5008003;28;20466;-74
2022/03/28 20:11:07;;;;;;;30.83;18.43;;;;;;;;;;5005045;28;20470;-75
2022/03/28 20:13:34;;;;;;;25.27;17.30;;;;;;;;;;5007319;28;20446;-76
2022/03/28 20:16:02;;;;;;;28.70;19.17;;;;;;;;;;5008694;28;20447;-78
2022/03/28 20:18:29;;;;;;;27.70;19.70;;;;;;;;;;5008259;28;20458;-76
2022/03/28 20:20:58;;;;;;;27.30;19.80;;;;;;;;;;5008807;28;20546;-76
2022/03/28 20:23:25;;;;;;;29.40;19.57;;;;;;;;;;5007687;28;20478;-74
2022/03/28 20:25:52;;;;;;;30.73;20.00;;;;;;;;;;5010717;28;20450;-74
2022/03/28 20:28:20;;;;;;;31.60;19.53;;;;;;;;;;5009971;28;20472;-77
2022/03/28 20:30:49;;;;;;;31.47;19.37;;;;;;;;;;5008567;28;20489;-75
2022/03/28 20:33:16;;;;;;;28.77;19.23;;;;;;;;;;5005833;28;20486;-75
2022/03/28 20:35:43;;;;;;;23.70;16.97;;;;;;;;;;5006413;28;20455;-75
2022/03/28 20:38:12;;;;;;;28.17;19.47;;;;;;;;;;5007487;28;20818;-77
2022/03/28 20:40:39;;;;;;;27.10;16.93;;;;;;;;;;5008001;28;20443;-77
2022/03/28 20:43:06;;;;;;;26.30;16.87;;;;;;;;;;5008620;28;20542;-76
2022/03/28 20:45:33;;;;;;;26.97;16.30;;;;;;;;;;5008794;28;20450;-76
2022/03/28 20:48:01;;;;;;;25.60;16.80;;;;;;;;;;5008535;28;20605;-77
2022/03/28 20:50:28;;;;;;;25.47;17.00;;;;;;;;;;5009990;28;20456;-76
2022/03/28 20:52:56;;;;;;;25.90;17.43;;;;;;;;;;5008801;28;20474;-73
2022/03/28 20:55:25;;;;;;;24.50;16.20;;;;;;;;;;5005343;28;20442;-76
2022/03/28 20:57:54;;;;;;;25.83;16.97;;;;;;;;;;5004757;28;20994;-75
2022/03/28 21:00:21;;;;;;;23.97;15.53;;;;;;;;;;5007360;28;20549;-74
2022/03/28 21:02:50;;;;;;;25.60;17.97;;;;;;;;;;5007839;28;20439;-75
2022/03/28 21:05:17;;;;;;;27.43;15.87;;;;;;;;;;5007800;28;20867;-73
2022/03/28 21:07:44;;;;;;;25.37;16.90;;;;;;;;;;5007941;28;20482;-75
2022/03/28 21:10:11;;;;;;;24.13;16.67;;;;;;;;;;5006316;28;20546;-75
2022/03/28 21:12:40;;;;;;;31.83;18.80;;;;;;;;;;5005037;28;20479;-76
2022/03/28 21:15:07;;;;;;;26.77;17.77;;;;;;;;;;5005830;28;20956;-75
2022/03/28 21:17:34;;;;;;;28.13;19.40;;;;;;;;;;5007993;28;20467;-76
2022/03/28 21:20:03;;;;;;;27.83;19.47;;;;;;;;;;5007686;28;20453;-75
2022/03/28 21:22:30;;;;;;;27.90;19.27;;;;;;;;;;5007439;28;20818;-74
2022/03/28 21:24:58;;;;;;;26.20;17.77;;;;;;;;;;5007148;28;20454;-75
2022/03/28 21:27:25;;;;;;;22.73;16.43;;;;;;;;;;5006325;28;20450;-75
2022/03/28 21:29:54;;;;;;;23.40;16.33;;;;;;;;;;5004898;28;20538;-75
2022/03/28 21:32:21;;;;;;;23.20;15.07;;;;;;;;;;5005255;28;20842;-77
2022/03/28 21:34:55;;;;;;;24.10;15.13;;;;;;;;;;5007277;28;20474;-75
2022/03/28 21:37:22;;;;;;;19.70;14.50;;;;;;;;;;5006969;28;20443;-74
2022/03/28 21:39:49;;;;;;;20.10;14.87;;;;;;;;;;5002432;28;20799;-75
2022/03/28 21:42:17;;;;;;;31.03;20.50;;;;;;;;;;5004746;28;21003;-75
2022/03/28 21:44:45;;;;;;;26.13;19.03;;;;;;;;;;5007836;28;20791;-74
2022/03/28 21:47:13;;;;;;;28.10;18.40;;;;;;;;;;5005326;28;20446;-73
2022/03/28 21:52:07;;;;;;;22.90;16.27;;;;;;;;;;5005778;28;21103;-76
2022/03/28 21:54:34;;;;;;;26.00;15.63;;;;;;;;;;5006760;28;20563;-76
2022/03/28 21:57:02;;;;;;;29.43;19.23;;;;;;;;;;5006669;28;20450;-77
2022/03/28 21:59:29;;;;;;;25.90;16.80;;;;;;;;;;5007946;28;20490;-75
2022/03/28 22:01:56;;;;;;;23.67;16.87;;;;;;;;;;5009251;28;20969;-75
2022/03/28 22:04:25;;;;;;;25.47;16.17;;;;;;;;;;5008604;28;20447;-74
2022/03/28 22:06:52;;;;;;;24.20;15.70;;;;;;;;;;5008147;28;20793;-73
2022/03/28 22:09:24;;;;;;;23.53;15.60;;;;;;;;;;4991681;28;20500;-75
2022/03/28 22:11:51;;;;;;;22.57;14.97;;;;;;;;;;4994462;28;20483;-76
2022/03/28 22:14:19;;;;;;;22.03;14.50;;;;;;;;;;4994547;28;20916;-76
2022/03/28 22:16:46;;;;;;;19.87;14.43;;;;;;;;;;4995125;28;20501;-76
2022/03/28 22:19:14;;;;;;;25.57;16.30;;;;;;;;;;5000917;28;20489;-76
2022/03/28 22:21:42;;;;;;;20.77;14.50;;;;;;;;;;5012932;28;20932;-76
2022/03/28 22:24:09;;;;;;;29.00;16.23;;;;;;;;;;5011391;28;20435;-75
2022/03/28 22:26:37;;;;;;;22.33;14.87;;;;;;;;;;5013193;28;20439;-75